Terminal Aerodrome Forecast
Issued by NWS Cleveland, OH

Home | Current Version | Previous Version | Text Only | Print | Product List | Glossary On
Versions: 1 2 3 4 5 6 7 8 9 10 11 12 13 14 15 16 17 18 19 20 21 22
000
FTUS41 KCLE 012300 CCA
TAFERI
TAF COR
KERI 012356Z 0200/0224 28004KT 4SM BR BKN006 OVC025
      TEMPO 0200/0204 6SM BR SCT006 OVC025
     FM020400 26006KT 6SM BR SCT008 OVC012
     FM020800 26009KT P6SM SCT012 OVC025
     FM021200 26011KT P6SM SCT025 OVC045
     FM021600 28011KT P6SM SCT045 BKN250=

USA.gov is the U.S. government's official web portal to all federal, state and local government web resources and services.